Mattituck, NY (11952)

12:09 PM EDT on August 30, 2016 (GMT -0400)
2000 Oregon Road, Mattituck, NY | | Change Station

Elev 0 ft 41.01 °N, 72.53 °W | Updated 0 second ago

Overcast
Overcast
78.0 °F
Feels Like 80 °F
N
2.0
Wind Variable Wind from SW
Gusts 6.0 mph

Today
High -- | Low -- °F
--% Chance of Precip.
Yesterday
High -- | Low -- °F
Precip. -- in
Pressure 30.17 in
Visibility 10.0 miles
Clouds Mostly Cloudy 3400 ft
Overcast 4100 ft
Heat Index 80 °F
Dew Point 66 °F
Humidity 67%
Rainfall 0.00 in
Snow Depth Not available.
6:15 AM 7:25 PM
Waning Crescent, 3% visible
METAR KFOK 301553Z 15007KT 110V180 10SM BKN034 OVC041 25/16 A3017 RMK AO2 SLP215 T02500161
Pressure 30.17 in
Visibility 10.0 miles
Clouds Mostly Cloudy 3400 ft
Overcast 4100 ft
Heat Index 80 °F
Dew Point 66 °F
Humidity 67%
Rainfall 0.00 in
Snow Depth Not available.
6:15 AM 7:25 PM
Waning Crescent, 3% visible
METAR KFOK 301553Z 15007KT 110V180 10SM BKN034 OVC041 25/16 A3017 RMK AO2 SLP215 T02500161

10-Day Weather Forecast

Almanac

Astronomy

Aug. 30, 2016 Rise Set
Actual Time
Civil Twilight
Nautical Twilight
Astronomical Twilight
Moon
Length of Visible Light
Length of Day
Tomorrow will be .
, % of the Moon is Illuminated

Today's Extremes

State Highs State Lows

Community

WunderPhotos

Upload Photos

1,935,857 photos uploaded!

WunderBlog® & News

Nearby

Air Quality

  Air Quality AQ Index Pollutant
Not available.

Snow Depth

Station Depth Elevation

Earthquake Activity

City Distance Mag. Time & Date
Minimum magnitude displayed is 2.5.

Coastal Water Temperatures

Place Temperature

Stations

Nearby Weather Stations

Station Location Temp. Windchill Dew Point Humidity Wind Precip. Elev Updated Type
                   

Watches & Warnings

There are currently no watches in effect.